sensor_id;sensor_type;location;lat;lon;timestamp;pressure;altitude;pressure_sealevel;temperature;humidity
7333;BME280;3707;43.618;25.342;2023-01-27T00:00:47;99452.09;;;4.33;100.00
7333;BME280;3707;43.618;25.342;2023-01-27T00:03:14;99431.34;;;4.24;100.00
7333;BME280;3707;43.618;25.342;2023-01-27T00:05:42;99459.16;;;4.40;100.00
7333;BME280;3707;43.618;25.342;2023-01-27T00:08:09;99470.38;;;4.43;100.00
7333;BME280;3707;43.618;25.342;2023-01-27T00:10:36;99450.50;;;4.36;100.00
7333;BME280;3707;43.618;25.342;2023-01-27T00:13:05;99469.09;;;4.58;100.00
7333;BME280;3707;43.618;25.342;2023-01-27T00:15:49;99459.31;;;4.44;100.00
7333;BME280;3707;43.618;25.342;2023-01-27T00:18:19;99449.50;;;4.61;100.00
7333;BME280;3707;43.618;25.342;2023-01-27T00:20:45;99413.47;;;4.28;100.00
7333;BME280;3707;43.618;25.342;2023-01-27T00:23:30;99408.25;;;4.25;100.00
7333;BME280;3707;43.618;25.342;2023-01-27T00:26:16;99432.53;;;4.36;100.00
7333;BME280;3707;43.618;25.342;2023-01-27T00:28:46;99444.56;;;4.39;100.00
7333;BME280;3707;43.618;25.342;2023-01-27T00:31:14;99435.09;;;4.36;100.00
7333;BME280;3707;43.618;25.342;2023-01-27T00:33:59;99441.81;;;4.31;100.00
7333;BME280;3707;43.618;25.342;2023-01-27T00:36:33;99437.66;;;4.36;100.00
7333;BME280;3707;43.618;25.342;2023-01-27T00:39:00;99439.50;;;4.40;100.00
7333;BME280;3707;43.618;25.342;2023-01-27T00:41:27;99435.75;;;4.29;100.00
7333;BME280;3707;43.618;25.342;2023-01-27T00:43:55;99426.78;;;4.15;100.00
7333;BME280;3707;43.618;25.342;2023-01-27T00:46:23;99440.97;;;4.32;100.00
7333;BME280;3707;43.618;25.342;2023-01-27T00:48:51;99434.00;;;4.28;100.00
7333;BME280;3707;43.618;25.342;2023-01-27T00:51:19;99428.47;;;4.15;100.00
7333;BME280;3707;43.618;25.342;2023-01-27T00:53:46;99407.84;;;4.10;100.00
7333;BME280;3707;43.618;25.342;2023-01-27T00:56:13;99430.16;;;4.14;100.00
7333;BME280;3707;43.618;25.342;2023-01-27T00:58:40;99427.44;;;4.08;100.00
7333;BME280;3707;43.618;25.342;2023-01-27T01:01:11;99415.47;;;4.09;100.00
7333;BME280;3707;43.618;25.342;2023-01-27T01:03:38;99430.06;;;4.11;100.00
7333;BME280;3707;43.618;25.342;2023-01-27T01:06:08;99425.09;;;4.16;100.00
7333;BME280;3707;43.618;25.342;2023-01-27T01:08:36;99423.50;;;4.19;100.00
7333;BME280;3707;43.618;25.342;2023-01-27T01:11:03;99423.53;;;4.21;100.00
7333;BME280;3707;43.618;25.342;2023-01-27T01:13:30;99416.19;;;4.03;100.00
7333;BME280;3707;43.618;25.342;2023-01-27T01:16:03;99333.78;;;3.64;100.00
7333;BME280;3707;43.618;25.342;2023-01-27T01:18:32;99423.31;;;4.13;100.00
7333;BME280;3707;43.618;25.342;2023-01-27T01:20:59;99424.19;;;4.14;100.00
7333;BME280;3707;43.618;25.342;2023-01-27T01:23:26;99431.66;;;4.06;100.00
7333;BME280;3707;43.618;25.342;2023-01-27T01:25:53;99444.47;;;4.06;100.00
7333;BME280;3707;43.618;25.342;2023-01-27T01:28:21;99453.88;;;4.07;100.00
7333;BME280;3707;43.618;25.342;2023-01-27T01:30:48;99458.13;;;4.05;100.00
7333;BME280;3707;43.618;25.342;2023-01-27T01:33:15;99428.94;;;4.02;100.00
7333;BME280;3707;43.618;25.342;2023-01-27T01:35:43;99458.69;;;4.25;100.00
7333;BME280;3707;43.618;25.342;2023-01-27T01:38:10;99434.47;;;4.15;100.00
7333;BME280;3707;43.618;25.342;2023-01-27T01:40:39;99431.19;;;4.19;100.00
7333;BME280;3707;43.618;25.342;2023-01-27T01:43:11;99461.78;;;4.41;100.00
7333;BME280;3707;43.618;25.342;2023-01-27T01:45:50;99455.13;;;4.48;100.00
7333;BME280;3707;43.618;25.342;2023-01-27T01:48:21;99444.03;;;4.49;100.00
7333;BME280;3707;43.618;25.342;2023-01-27T01:50:53;99408.25;;;4.25;100.00
7333;BME280;3707;43.618;25.342;2023-01-27T01:53:22;99429.00;;;4.31;100.00
7333;BME280;3707;43.618;25.342;2023-01-27T01:55:54;99388.53;;;4.23;100.00
7333;BME280;3707;43.618;25.342;2023-01-27T01:58:21;99410.47;;;4.41;100.00
7333;BME280;3707;43.618;25.342;2023-01-27T02:00:48;99411.34;;;4.42;100.00
7333;BME280;3707;43.618;25.342;2023-01-27T02:03:15;99393.06;;;4.31;100.00
7333;BME280;3707;43.618;25.342;2023-01-27T02:05:43;99386.28;;;4.33;100.00
7333;BME280;3707;43.618;25.342;2023-01-27T02:08:18;99402.69;;;4.38;100.00
7333;BME280;3707;43.618;25.342;2023-01-27T02:10:46;99384.09;;;4.17;100.00
7333;BME280;3707;43.618;25.342;2023-01-27T02:13:14;99403.22;;;4.28;100.00
7333;BME280;3707;43.618;25.342;2023-01-27T02:15:41;99408.47;;;4.31;100.00
7333;BME280;3707;43.618;25.342;2023-01-27T02:18:07;99406.34;;;4.18;100.00
7333;BME280;3707;43.618;25.342;2023-01-27T02:20:38;99405.13;;;4.35;100.00
7333;BME280;3707;43.618;25.342;2023-01-27T02:23:17;99414.59;;;4.36;100.00
7333;BME280;3707;43.618;25.342;2023-01-27T02:25:52;99416.66;;;4.49;100.00
7333;BME280;3707;43.618;25.342;2023-01-27T02:28:20;99410.56;;;4.46;100.00
7333;BME280;3707;43.618;25.342;2023-01-27T02:30:47;99394.03;;;4.35;100.00
7333;BME280;3707;43.618;25.342;2023-01-27T02:33:15;99403.94;;;4.53;100.00
7333;BME280;3707;43.618;25.342;2023-01-27T02:35:45;99407.31;;;4.52;100.00
7333;BME280;3707;43.618;25.342;2023-01-27T02:38:16;99378.88;;;4.44;100.00
7333;BME280;3707;43.618;25.342;2023-01-27T02:40:46;99389.34;;;4.52;100.00
7333;BME280;3707;43.618;25.342;2023-01-27T02:43:15;99379.75;;;4.44;100.00
7333;BME280;3707;43.618;25.342;2023-01-27T02:45:44;99368.66;;;4.45;100.00
7333;BME280;3707;43.618;25.342;2023-01-27T02:48:11;99359.13;;;4.41;100.00
7333;BME280;3707;43.618;25.342;2023-01-27T02:50:38;99333.84;;;4.24;100.00
7333;BME280;3707;43.618;25.342;2023-01-27T02:53:06;99338.97;;;4.24;100.00
7333;BME280;3707;43.618;25.342;2023-01-27T02:55:32;99328.41;;;4.13;100.00
7333;BME280;3707;43.618;25.342;2023-01-27T02:57:59;99350.00;;;4.21;100.00
7333;BME280;3707;43.618;25.342;2023-01-27T03:00:27;99337.44;;;4.30;100.00
7333;BME280;3707;43.618;25.342;2023-01-27T03:02:54;99356.72;;;4.16;100.00
7333;BME280;3707;43.618;25.342;2023-01-27T03:05:21;99356.72;;;4.16;100.00
7333;BME280;3707;43.618;25.342;2023-01-27T03:07:48;99339.31;;;4.06;100.00
7333;BME280;3707;43.618;25.342;2023-01-27T03:10:15;99318.94;;;3.81;100.00
7333;BME280;3707;43.618;25.342;2023-01-27T03:12:43;99341.03;;;4.07;100.00
7333;BME280;3707;43.618;25.342;2023-01-27T03:15:10;99344.00;;;3.91;100.00
7333;BME280;3707;43.618;25.342;2023-01-27T03:18:02;99339.13;;;4.00;100.00
7333;BME280;3707;43.618;25.342;2023-01-27T03:20:35;99343.91;;;3.88;100.00
7333;BME280;3707;43.618;25.342;2023-01-27T03:23:02;99344.00;;;3.91;100.00
7333;BME280;3707;43.618;25.342;2023-01-27T03:25:29;99242.78;;;3.48;100.00
7333;BME280;3707;43.618;25.342;2023-01-27T03:27:56;99316.28;;;3.78;100.00
7333;BME280;3707;43.618;25.342;2023-01-27T03:30:23;99343.56;;;4.06;100.00
7333;BME280;3707;43.618;25.342;2023-01-27T03:32:49;99349.38;;;4.00;100.00
7333;BME280;3707;43.618;25.342;2023-01-27T03:35:18;99349.66;;;4.09;100.00
7333;BME280;3707;43.618;25.342;2023-01-27T03:37:45;99324.78;;;3.77;100.00
7333;BME280;3707;43.618;25.342;2023-01-27T03:40:29;99351.78;;;3.94;100.00
7333;BME280;3707;43.618;25.342;2023-01-27T03:43:13;99347.78;;;4.04;100.00
7333;BME280;3707;43.618;25.342;2023-01-27T03:45:57;99360.34;;;3.94;100.00
7333;BME280;3707;43.618;25.342;2023-01-27T03:48:48;99345.84;;;3.95;100.00
7333;BME280;3707;43.618;25.342;2023-01-27T03:51:17;99373.19;;;3.96;100.00
7333;BME280;3707;43.618;25.342;2023-01-27T03:53:45;99373.97;;;3.93;100.00
7333;BME280;3707;43.618;25.342;2023-01-27T03:56:13;99319.75;;;3.80;100.00
7333;BME280;3707;43.618;25.342;2023-01-27T03:58:40;99355.25;;;3.96;100.00
7333;BME280;3707;43.618;25.342;2023-01-27T04:01:12;99335.56;;;3.95;100.00
7333;BME280;3707;43.618;25.342;2023-01-27T04:03:39;99342.94;;;4.14;100.00
7333;BME280;3707;43.618;25.342;2023-01-27T04:06:26;99302.16;;;3.92;100.00
7333;BME280;3707;43.618;25.342;2023-01-27T04:09:12;99333.09;;;3.98;100.00
7333;BME280;3707;43.618;25.342;2023-01-27T04:11:39;99321.91;;;3.96;100.00
7333;BME280;3707;43.618;25.342;2023-01-27T04:14:21;99313.22;;;3.91;100.00
7333;BME280;3707;43.618;25.342;2023-01-27T04:16:50;99334.31;;;3.81;100.00
7333;BME280;3707;43.618;25.342;2023-01-27T04:19:17;99371.47;;;3.95;100.00
7333;BME280;3707;43.618;25.342;2023-01-27T04:21:45;99367.16;;;3.94;100.00
7333;BME280;3707;43.618;25.342;2023-01-27T04:24:13;99377.56;;;3.98;100.00
7333;BME280;3707;43.618;25.342;2023-01-27T04:26:50;99373.47;;;4.05;100.00
7333;BME280;3707;43.618;25.342;2023-01-27T04:29:19;99352.38;;;3.85;100.00
7333;BME280;3707;43.618;25.342;2023-01-27T04:31:46;99361.47;;;4.04;100.00
7333;BME280;3707;43.618;25.342;2023-01-27T04:34:13;99361.56;;;4.07;100.00
7333;BME280;3707;43.618;25.342;2023-01-27T04:36:40;99360.66;;;4.05;100.00
7333;BME280;3707;43.618;25.342;2023-01-27T04:39:09;99356.53;;;4.10;100.00
7333;BME280;3707;43.618;25.342;2023-01-27T04:41:36;99360.59;;;4.04;100.00
7333;BME280;3707;43.618;25.342;2023-01-27T04:44:04;99309.50;;;3.80;100.00
7333;BME280;3707;43.618;25.342;2023-01-27T04:46:31;99349.44;;;4.02;100.00
7333;BME280;3707;43.618;25.342;2023-01-27T04:48:58;99350.41;;;4.05;100.00
7333;BME280;3707;43.618;25.342;2023-01-27T04:51:25;99351.22;;;4.04;100.00
7333;BME280;3707;43.618;25.342;2023-01-27T04:53:52;99352.16;;;4.06;100.00
7333;BME280;3707;43.618;25.342;2023-01-27T04:56:26;99337.41;;;3.99;100.00
7333;BME280;3707;43.618;25.342;2023-01-27T04:58:54;99339.13;;;4.00;100.00
7333;BME280;3707;43.618;25.342;2023-01-27T05:01:23;99360.97;;;4.16;100.00
7333;BME280;3707;43.618;25.342;2023-01-27T05:03:50;99358.47;;;4.17;100.00
7333;BME280;3707;43.618;25.342;2023-01-27T05:06:16;99325.97;;;3.88;100.00
7333;BME280;3707;43.618;25.342;2023-01-27T05:08:43;99348.88;;;4.12;100.00
7333;BME280;3707;43.618;25.342;2023-01-27T05:11:10;99347.13;;;4.11;100.00
7333;BME280;3707;43.618;25.342;2023-01-27T05:13:39;99343.91;;;4.18;100.00
7333;BME280;3707;43.618;25.342;2023-01-27T05:16:08;99356.06;;;4.23;100.00
7333;BME280;3707;43.618;25.342;2023-01-27T05:18:36;99345.53;;;4.14;100.00
7333;BME280;3707;43.618;25.342;2023-01-27T05:21:04;99322.78;;;3.96;100.00
7333;BME280;3707;43.618;25.342;2023-01-27T05:23:31;99352.47;;;4.18;100.00
7333;BME280;3707;43.618;25.342;2023-01-27T05:26:10;99351.81;;;4.25;100.00
7333;BME280;3707;43.618;25.342;2023-01-27T05:28:39;99352.78;;;4.29;100.00
7333;BME280;3707;43.618;25.342;2023-01-27T05:31:09;99328.63;;;4.21;100.00
7333;BME280;3707;43.618;25.342;2023-01-27T05:33:36;99341.56;;;4.25;100.00
7333;BME280;3707;43.618;25.342;2023-01-27T05:36:05;99336.63;;;4.31;100.00
7333;BME280;3707;43.618;25.342;2023-01-27T05:38:32;99341.31;;;4.16;100.00
7333;BME280;3707;43.618;25.342;2023-01-27T05:41:01;99262.56;;;3.53;100.00
7333;BME280;3707;43.618;25.342;2023-01-27T05:43:28;99363.38;;;4.10;100.00
7333;BME280;3707;43.618;25.342;2023-01-27T05:46:08;99368.88;;;4.23;100.00
7333;BME280;3707;43.618;25.342;2023-01-27T05:48:36;99366.03;;;4.14;100.00
7333;BME280;3707;43.618;25.342;2023-01-27T05:51:03;99362.41;;;4.06;100.00
7333;BME280;3707;43.618;25.342;2023-01-27T05:53:30;99359.94;;;4.09;100.00
7333;BME280;3707;43.618;25.342;2023-01-27T05:55:57;99358.25;;;4.11;100.00
7333;BME280;3707;43.618;25.342;2023-01-27T05:58:24;99326.06;;;3.91;100.00
7333;BME280;3707;43.618;25.342;2023-01-27T06:00:52;99359.56;;;3.97;100.00
7333;BME280;3707;43.618;25.342;2023-01-27T06:03:21;99346.25;;;3.80;100.00
7333;BME280;3707;43.618;25.342;2023-01-27T06:05:49;99341.69;;;3.70;100.00
7333;BME280;3707;43.618;25.342;2023-01-27T06:08:16;99364.22;;;3.82;100.00
7333;BME280;3707;43.618;25.342;2023-01-27T06:10:43;99344.03;;;3.64;100.00
7333;BME280;3707;43.618;25.342;2023-01-27T06:13:10;99372.16;;;3.89;100.00
7333;BME280;3707;43.618;25.342;2023-01-27T06:15:40;99364.97;;;3.78;100.00
7333;BME280;3707;43.618;25.342;2023-01-27T06:18:07;99377.47;;;3.67;100.00
7333;BME280;3707;43.618;25.342;2023-01-27T06:20:35;99375.19;;;3.76;100.00
7333;BME280;3707;43.618;25.342;2023-01-27T06:23:02;99350.75;;;3.61;100.00
7333;BME280;3707;43.618;25.342;2023-01-27T06:25:30;99345.53;;;3.56;100.00
7333;BME280;3707;43.618;25.342;2023-01-27T06:27:56;99348.91;;;3.55;100.00
7333;BME280;3707;43.618;25.342;2023-01-27T06:30:23;99391.25;;;3.71;100.00
7333;BME280;3707;43.618;25.342;2023-01-27T06:32:50;99366.59;;;3.47;100.00
7333;BME280;3707;43.618;25.342;2023-01-27T06:35:17;99366.59;;;3.47;100.00
7333;BME280;3707;43.618;25.342;2023-01-27T06:37:45;99361.84;;;3.60;100.00
7333;BME280;3707;43.618;25.342;2023-01-27T06:40:14;99364.56;;;3.37;100.00
7333;BME280;3707;43.618;25.342;2023-01-27T06:42:41;99383.19;;;3.59;100.00
7333;BME280;3707;43.618;25.342;2023-01-27T06:45:09;99388.16;;;3.54;100.00
7333;BME280;3707;43.618;25.342;2023-01-27T06:47:36;99316.03;;;3.15;100.00
7333;BME280;3707;43.618;25.342;2023-01-27T06:50:03;99383.03;;;3.54;100.00
7333;BME280;3707;43.618;25.342;2023-01-27T06:52:30;99370.28;;;3.56;100.00
7333;BME280;3707;43.618;25.342;2023-01-27T06:54:58;99368.91;;;3.67;100.00
7333;BME280;3707;43.618;25.342;2023-01-27T06:57:25;99370.19;;;3.53;100.00
7333;BME280;3707;43.618;25.342;2023-01-27T06:59:52;99377.66;;;3.46;100.00
7333;BME280;3707;43.618;25.342;2023-01-27T07:02:19;99380.06;;;3.69;100.00
7333;BME280;3707;43.618;25.342;2023-01-27T07:04:45;99377.16;;;3.57;100.00
7333;BME280;3707;43.618;25.342;2023-01-27T07:07:12;99380.69;;;3.62;100.00
7333;BME280;3707;43.618;25.342;2023-01-27T07:09:39;99383.97;;;3.56;100.00
7333;BME280;3707;43.618;25.342;2023-01-27T07:12:07;99387.47;;;3.60;100.00
7333;BME280;3707;43.618;25.342;2023-01-27T07:14:34;99370.94;;;3.50;100.00
7333;BME280;3707;43.618;25.342;2023-01-27T07:17:00;99398.88;;;3.69;100.00
7333;BME280;3707;43.618;25.342;2023-01-27T07:19:27;99401.06;;;3.57;100.00
7333;BME280;3707;43.618;25.342;2023-01-27T07:21:54;99371.63;;;3.44;100.00
7333;BME280;3707;43.618;25.342;2023-01-27T07:24:21;99387.59;;;3.64;100.00
7333;BME280;3707;43.618;25.342;2023-01-27T07:26:48;99369.97;;;3.46;100.00
7333;BME280;3707;43.618;25.342;2023-01-27T07:29:16;99399.44;;;3.61;100.00
7333;BME280;3707;43.618;25.342;2023-01-27T07:31:42;99393.09;;;3.48;100.00
7333;BME280;3707;43.618;25.342;2023-01-27T07:34:09;99402.47;;;3.47;100.00
7333;BME280;3707;43.618;25.342;2023-01-27T07:36:36;99391.19;;;3.42;100.00
7333;BME280;3707;43.618;25.342;2023-01-27T07:39:03;99366.81;;;3.28;100.00
7333;BME280;3707;43.618;25.342;2023-01-27T07:41:30;99404.84;;;3.41;100.00
7333;BME280;3707;43.618;25.342;2023-01-27T07:43:56;99411.19;;;3.53;100.00
7333;BME280;3707;43.618;25.342;2023-01-27T07:46:25;99257.72;;;2.55;100.00
7333;BME280;3707;43.618;25.342;2023-01-27T07:48:52;99411.66;;;3.41;100.00
7333;BME280;3707;43.618;25.342;2023-01-27T07:51:18;99403.97;;;3.41;100.00
7333;BME280;3707;43.618;25.342;2023-01-27T07:53:45;99404.22;;;3.48;100.00
7333;BME280;3707;43.618;25.342;2023-01-27T07:56:12;99410.97;;;3.46;100.00
7333;BME280;3707;43.618;25.342;2023-01-27T07:58:39;99416.09;;;3.46;100.00
7333;BME280;3707;43.618;25.342;2023-01-27T08:01:06;99416.81;;;3.42;100.00
7333;BME280;3707;43.618;25.342;2023-01-27T08:03:35;99411.19;;;3.53;100.00
7333;BME280;3707;43.618;25.342;2023-01-27T08:06:05;99390.75;;;3.29;100.00
7333;BME280;3707;43.618;25.342;2023-01-27T08:08:32;99412.63;;;3.19;100.00
7333;BME280;3707;43.618;25.342;2023-01-27T08:11:00;99382.81;;;3.21;100.00
7333;BME280;3707;43.618;25.342;2023-01-27T08:13:27;99399.56;;;3.37;100.00
7333;BME280;3707;43.618;25.342;2023-01-27T08:15:57;99392.34;;;3.25;100.00
7333;BME280;3707;43.618;25.342;2023-01-27T08:18:24;99383.56;;;3.17;100.00
7333;BME280;3707;43.618;25.342;2023-01-27T08:20:53;99400.25;;;3.31;100.00
7333;BME280;3707;43.618;25.342;2023-01-27T08:23:21;99375.97;;;3.20;100.00
7333;BME280;3707;43.618;25.342;2023-01-27T08:25:48;99385.63;;;3.29;100.00
7333;BME280;3707;43.618;25.342;2023-01-27T08:28:16;99381.84;;;3.18;100.00
7333;BME280;3707;43.618;25.342;2023-01-27T08:30:43;99363.78;;;3.13;100.00
7333;BME280;3707;43.618;25.342;2023-01-27T08:33:10;99379.75;;;3.31;100.00
7333;BME280;3707;43.618;25.342;2023-01-27T08:35:37;99360.06;;;3.30;100.00
7333;BME280;3707;43.618;25.342;2023-01-27T08:38:08;99386.81;;;3.38;100.00
7333;BME280;3707;43.618;25.342;2023-01-27T08:40:35;99361.56;;;3.50;100.00
7333;BME280;3707;43.618;25.342;2023-01-27T08:43:02;99378.53;;;3.47;100.00
7333;BME280;3707;43.618;25.342;2023-01-27T08:45:28;99387.66;;;3.39;100.00
7333;BME280;3707;43.618;25.342;2023-01-27T08:47:55;99387.81;;;3.43;100.00
7333;BME280;3707;43.618;25.342;2023-01-27T08:50:22;99359.00;;;3.50;100.00
7333;BME280;3707;43.618;25.342;2023-01-27T08:52:49;99383.75;;;3.23;100.00
7333;BME280;3707;43.618;25.342;2023-01-27T08:55:17;99362.63;;;3.30;100.00
7333;BME280;3707;43.618;25.342;2023-01-27T08:57:44;99370.56;;;3.38;100.00
7333;BME280;3707;43.618;25.342;2023-01-27T09:00:11;99357.31;;;3.24;100.00
7333;BME280;3707;43.618;25.342;2023-01-27T09:02:38;99368.06;;;3.14;100.00
7333;BME280;3707;43.618;25.342;2023-01-27T09:05:05;99371.03;;;3.26;100.00
7333;BME280;3707;43.618;25.342;2023-01-27T09:07:32;99358.13;;;3.23;100.00
7333;BME280;3707;43.618;25.342;2023-01-27T09:09:59;99339.63;;;3.05;100.00
7333;BME280;3707;43.618;25.342;2023-01-27T09:12:27;99355.25;;;3.14;100.00
7333;BME280;3707;43.618;25.342;2023-01-27T09:14:54;99333.53;;;3.02;100.00
7333;BME280;3707;43.618;25.342;2023-01-27T09:17:22;99350.34;;;3.20;100.00
7333;BME280;3707;43.618;25.342;2023-01-27T09:19:49;99315.38;;;3.21;100.00
7333;BME280;3707;43.618;25.342;2023-01-27T09:22:16;99351.41;;;3.27;100.00
7333;BME280;3707;43.618;25.342;2023-01-27T09:24:43;99340.22;;;3.23;100.00
7333;BME280;3707;43.618;25.342;2023-01-27T09:27:10;99360.78;;;3.26;100.00
7333;BME280;3707;43.618;25.342;2023-01-27T09:29:38;99348.06;;;3.29;100.00
7333;BME280;3707;43.618;25.342;2023-01-27T09:32:05;99356.97;;;3.14;100.00
7333;BME280;3707;43.618;25.342;2023-01-27T09:34:33;99360.59;;;3.20;100.00
7333;BME280;3707;43.618;25.342;2023-01-27T09:37:03;99351.97;;;3.18;100.00
7333;BME280;3707;43.618;25.342;2023-01-27T09:39:34;99359.53;;;3.14;100.00
7333;BME280;3707;43.618;25.342;2023-01-27T09:42:24;99365.72;;;3.20;100.00
7333;BME280;3707;43.618;25.342;2023-01-27T09:45:30;99358.84;;;3.19;100.00
7333;BME280;3707;43.618;25.342;2023-01-27T09:48:23;99353.63;;;3.16;100.00
7333;BME280;3707;43.618;25.342;2023-01-27T09:50:54;99350.44;;;3.23;100.00
7333;BME280;3707;43.618;25.342;2023-01-27T09:56:51;99353.47;;;3.12;100.00
7333;BME280;3707;43.618;25.342;2023-01-27T10:02:34;99354.41;;;3.14;100.00
7333;BME280;3707;43.618;25.342;2023-01-27T10:08:30;99342.16;;;3.32;100.00
7333;BME280;3707;43.618;25.342;2023-01-27T10:11:07;99336.94;;;3.27;100.00
7333;BME280;3707;43.618;25.342;2023-01-27T10:13:44;99326.34;;;3.17;100.00
7333;BME280;3707;43.618;25.342;2023-01-27T10:16:24;99310.59;;;3.31;100.00
7333;BME280;3707;43.618;25.342;2023-01-27T10:19:09;99328.13;;;3.19;100.00
7333;BME280;3707;43.618;25.342;2023-01-27T10:21:47;99321.16;;;3.15;100.00
7333;BME280;3707;43.618;25.342;2023-01-27T10:24:29;99327.09;;;3.14;100.00
7333;BME280;3707;43.618;25.342;2023-01-27T10:27:03;99326.47;;;3.21;100.00
7333;BME280;3707;43.618;25.342;2023-01-27T10:29:36;99307.22;;;3.07;100.00
7333;BME280;3707;43.618;25.342;2023-01-27T10:32:08;99321.06;;;3.12;100.00
7333;BME280;3707;43.618;25.342;2023-01-27T10:34:44;99322.41;;;3.01;100.00
7333;BME280;3707;43.618;25.342;2023-01-27T10:37:21;99318.06;;;2.98;100.00
7333;BME280;3707;43.618;25.342;2023-01-27T10:39:57;99305.56;;;2.82;100.00
7333;BME280;3707;43.618;25.342;2023-01-27T10:42:30;99295.19;;;2.78;100.00
7333;BME280;3707;43.618;25.342;2023-01-27T10:45:11;99320.47;;;2.94;100.00
7333;BME280;3707;43.618;25.342;2023-01-27T10:47:52;99299.09;;;2.67;100.00
7333;BME280;3707;43.618;25.342;2023-01-27T10:50:26;99324.31;;;2.81;100.00
7333;BME280;3707;43.618;25.342;2023-01-27T10:52:59;99315.00;;;2.83;100.00
7333;BME280;3707;43.618;25.342;2023-01-27T10:55:36;99316.03;;;2.88;100.00
7333;BME280;3707;43.618;25.342;2023-01-27T10:58:10;99314.53;;;2.70;100.00
7333;BME280;3707;43.618;25.342;2023-01-27T11:00:43;99273.00;;;2.52;100.00
7333;BME280;3707;43.618;25.342;2023-01-27T11:03:13;99312.88;;;2.72;100.00
7333;BME280;3707;43.618;25.342;2023-01-27T11:05:50;99219.94;;;2.21;100.00
7333;BME280;3707;43.618;25.342;2023-01-27T11:08:19;99317.81;;;2.66;100.00
7333;BME280;3707;43.618;25.342;2023-01-27T11:10:50;99316.38;;;2.74;100.00
7333;BME280;3707;43.618;25.342;2023-01-27T11:13:36;99306.91;;;2.71;100.00
7333;BME280;3707;43.618;25.342;2023-01-27T11:16:04;99295.03;;;2.73;100.00
7333;BME280;3707;43.618;25.342;2023-01-27T11:18:34;99309.34;;;2.67;100.00
7333;BME280;3707;43.618;25.342;2023-01-27T11:21:06;99314.75;;;2.76;100.00
7333;BME280;3707;43.618;25.342;2023-01-27T11:23:39;99308.91;;;2.55;100.00
7333;BME280;3707;43.618;25.342;2023-01-27T11:26:14;99286.38;;;2.95;100.00
7333;BME280;3707;43.618;25.342;2023-01-27T11:28:49;99211.69;;;2.04;100.00
7333;BME280;3707;43.618;25.342;2023-01-27T11:31:24;99300.31;;;2.78;100.00
7333;BME280;3707;43.618;25.342;2023-01-27T11:33:59;99304.97;;;2.64;100.00
7333;BME280;3707;43.618;25.342;2023-01-27T11:36:32;99305.63;;;2.59;100.00
7333;BME280;3707;43.618;25.342;2023-01-27T11:38:59;99300.00;;;2.43;100.00
7333;BME280;3707;43.618;25.342;2023-01-27T11:41:31;99305.19;;;2.46;100.00
7333;BME280;3707;43.618;25.342;2023-01-27T11:44:04;99309.00;;;2.58;100.00
7333;BME280;3707;43.618;25.342;2023-01-27T11:46:31;99298.66;;;2.55;100.00
7333;BME280;3707;43.618;25.342;2023-01-27T11:49:00;99280.22;;;2.39;100.00
7333;BME280;3707;43.618;25.342;2023-01-27T11:51:34;99304.47;;;2.49;100.00
7333;BME280;3707;43.618;25.342;2023-01-27T11:54:05;99306.50;;;2.59;100.00
7333;BME280;3707;43.618;25.342;2023-01-27T11:56:38;99312.50;;;2.60;100.00
7333;BME280;3707;43.618;25.342;2023-01-27T11:59:09;99278.31;;;2.58;100.00
7333;BME280;3707;43.618;25.342;2023-01-27T12:01:49;99300.47;;;3.09;100.00
7333;BME280;3707;43.618;25.342;2023-01-27T12:04:24;99306.03;;;2.96;100.00
7333;BME280;3707;43.618;25.342;2023-01-27T12:07:09;99311.78;;;2.89;100.00
7333;BME280;3707;43.618;25.342;2023-01-27T12:09:39;99278.31;;;2.58;100.00
7333;BME280;3707;43.618;25.342;2023-01-27T12:12:19;99318.72;;;2.68;100.00
7333;BME280;3707;43.618;25.342;2023-01-27T12:14:48;99320.09;;;2.58;100.00
7333;BME280;3707;43.618;25.342;2023-01-27T12:17:23;99317.03;;;2.68;100.00
7333;BME280;3707;43.618;25.342;2023-01-27T12:19:54;99327.34;;;2.70;100.00
7333;BME280;3707;43.618;25.342;2023-01-27T12:22:27;99328.34;;;2.75;100.00
7333;BME280;3707;43.618;25.342;2023-01-27T12:24:57;99319.56;;;2.67;100.00
7333;BME280;3707;43.618;25.342;2023-01-27T12:27:27;99340.84;;;2.66;100.00
7333;BME280;3707;43.618;25.342;2023-01-27T12:30:00;99336.44;;;2.62;100.00
7333;BME280;3707;43.618;25.342;2023-01-27T12:32:35;99335.53;;;2.60;100.00
7333;BME280;3707;43.618;25.342;2023-01-27T12:35:05;99336.88;;;2.74;100.00
7333;BME280;3707;43.618;25.342;2023-01-27T12:37:36;99339.63;;;2.80;100.00
7333;BME280;3707;43.618;25.342;2023-01-27T12:40:05;99306.25;;;2.77;100.00
7333;BME280;3707;43.618;25.342;2023-01-27T12:42:38;99339.81;;;3.11;100.00
7333;BME280;3707;43.618;25.342;2023-01-27T12:45:21;99314.34;;;2.89;100.00
7333;BME280;3707;43.618;25.342;2023-01-27T12:47:56;99322.88;;;3.43;100.00
7333;BME280;3707;43.618;25.342;2023-01-27T12:50:25;99330.44;;;3.38;100.00
7333;BME280;3707;43.618;25.342;2023-01-27T12:53:03;99338.94;;;3.11;100.00
7333;BME280;3707;43.618;25.342;2023-01-27T12:55:31;99323.81;;;2.66;100.00
7333;BME280;3707;43.618;25.342;2023-01-27T12:57:59;99353.47;;;2.85;100.00
7333;BME280;3707;43.618;25.342;2023-01-27T13:00:26;99353.94;;;2.75;100.00
7333;BME280;3707;43.618;25.342;2023-01-27T13:03:02;99348.06;;;2.77;100.00
7333;BME280;3707;43.618;25.342;2023-01-27T13:05:35;99331.22;;;2.59;100.00
7333;BME280;3707;43.618;25.342;2023-01-27T13:08:05;99361.41;;;2.69;100.00
7333;BME280;3707;43.618;25.342;2023-01-27T13:10:38;99361.81;;;2.56;100.00
7333;BME280;3707;43.618;25.342;2023-01-27T13:13:17;99356.34;;;2.45;100.00
7333;BME280;3707;43.618;25.342;2023-01-27T13:15:51;99266.84;;;1.97;100.00
7333;BME280;3707;43.618;25.342;2023-01-27T13:18:20;99328.16;;;2.20;100.00
7333;BME280;3707;43.618;25.342;2023-01-27T13:20:49;99340.25;;;2.25;100.00
7333;BME280;3707;43.618;25.342;2023-01-27T13:23:21;99360.97;;;2.31;100.00
7333;BME280;3707;43.618;25.342;2023-01-27T13:25:51;99353.75;;;2.21;100.00
7333;BME280;3707;43.618;25.342;2023-01-27T13:28:24;99276.47;;;1.81;100.00
7333;BME280;3707;43.618;25.342;2023-01-27T13:30:57;99341.69;;;2.17;100.00
7333;BME280;3707;43.618;25.342;2023-01-27T13:33:30;99343.00;;;2.30;100.00
7333;BME280;3707;43.618;25.342;2023-01-27T13:36:05;99349.28;;;2.39;100.00